Aldrich, Minnesota
Current Conditions -  °F | °C
As of 10:33 PM on Friday 19 Dec 2014 (Local Time) from KSAZ Reporting Station
Haze Haze  
Wind Chill: -3°   Ceiling: 300
Heat Index: -3°   Visibility: 2.5mi
Dew Point: -3°   Wind: 3mph
Humidity: 100%   Direction: 150°SSE
Pressure: 30.06"   Gusts: NA
Location:  46.38°N, 94.94°W
Report Text: KSAZ 200433Z AUTO 15003KT 2 1/2SM BR OVC003 M03/M03 A3006 RMK AO2
Loading
Personal Weather Stations






























Interactive Weather Map New forecast layout! Learn more

10-Day Weather Forecast

Advertisements
Track Severe Weather on mobile